createdAt,value
2018-01-10T00:01:02.718Z,12.43
2018-01-10T00:03:30.312Z,11.93
2018-01-10T00:05:57.887Z,9.45
2018-01-10T00:08:25.444Z,9.82
2018-01-10T00:10:53.582Z,14.65
2018-01-10T00:13:21.134Z,13.30
2018-01-10T00:15:48.696Z,10.95
2018-01-10T00:18:16.473Z,9.07
2018-01-10T00:20:44.059Z,8.77
2018-01-10T00:23:11.634Z,13.77
2018-01-10T00:25:39.411Z,8.68
2018-01-10T00:28:07.333Z,7.03
2018-01-10T00:30:34.972Z,8.02
2018-01-10T00:33:02.525Z,10.70
2018-01-10T00:35:30.660Z,11.70
2018-01-10T00:37:59.665Z,9.45
2018-01-10T00:40:27.255Z,11.02
2018-01-10T00:42:55.063Z,10.27
2018-01-10T00:45:22.644Z,9.40
2018-01-10T00:47:50.469Z,14.70
2018-01-10T00:50:18.664Z,17.67
2018-01-10T00:52:46.268Z,12.88
2018-01-10T00:55:13.856Z,10.02
2018-01-10T00:57:42.104Z,19.15
2018-01-10T01:00:09.869Z,14.65
2018-01-10T01:02:37.434Z,24.12
2018-01-10T01:05:06.857Z,30.73
2018-01-10T01:07:34.581Z,22.73
2018-01-10T01:10:02.270Z,22.58
2018-01-10T01:12:30.741Z,14.82
2018-01-10T01:14:58.347Z,16.52
2018-01-10T01:17:25.960Z,17.05
2018-01-10T01:19:53.563Z,24.90
2018-01-10T01:22:21.185Z,25.90
2018-01-10T01:24:48.742Z,28.12
2018-01-10T01:27:16.393Z,29.27
2018-01-10T01:29:43.967Z,27.87
2018-01-10T01:32:11.535Z,24.63
2018-01-10T01:34:39.576Z,23.08
2018-01-10T01:37:07.416Z,20.65
2018-01-10T01:39:35.121Z,21.08
2018-01-10T01:42:02.933Z,20.25
2018-01-10T01:44:30.537Z,24.25
2018-01-10T01:46:58.107Z,17.35
2018-01-10T01:49:25.715Z,12.52
2018-01-10T01:51:53.266Z,9.70
2018-01-10T01:54:20.865Z,8.00
2018-01-10T01:56:48.981Z,9.50
2018-01-10T01:59:16.662Z,10.65
2018-01-10T02:01:45.123Z,11.38
2018-01-10T02:04:12.740Z,8.52
2018-01-10T02:06:40.570Z,8.27
2018-01-10T02:09:08.173Z,10.35
2018-01-10T02:11:35.988Z,7.12
2018-01-10T02:14:03.574Z,7.43
2018-01-10T02:16:31.160Z,5.65
2018-01-10T02:18:58.928Z,4.95
2018-01-10T02:21:27.069Z,5.75
2018-01-10T02:23:54.629Z,4.90
2018-01-10T02:26:22.199Z,7.00
2018-01-10T02:28:49.957Z,5.37
2018-01-10T02:31:17.538Z,4.62
2018-01-10T02:33:45.277Z,8.52
2018-01-10T02:36:12.865Z,6.40
2018-01-10T02:38:40.479Z,6.05
2018-01-10T02:41:08.028Z,3.60
2018-01-10T02:43:35.816Z,8.30
2018-01-10T02:46:03.388Z,4.05
2018-01-10T02:48:31.888Z,5.82
2018-01-10T02:51:00.466Z,4.32
2018-01-10T02:53:28.124Z,4.68
2018-01-10T02:55:55.920Z,6.35
2018-01-10T02:58:23.566Z,5.45
2018-01-10T03:00:51.348Z,4.55
2018-01-10T03:03:18.920Z,6.78
2018-01-10T03:05:46.711Z,7.40
2018-01-10T03:08:14.545Z,6.35
2018-01-10T03:10:43.008Z,5.78
2018-01-10T03:13:10.572Z,7.72
2018-01-10T03:15:38.153Z,10.18
2018-01-10T03:18:05.928Z,7.43
2018-01-10T03:20:33.690Z,5.03
2018-01-10T03:23:01.618Z,5.87
2018-01-10T03:25:29.165Z,7.07
2018-01-10T03:27:57.720Z,9.73
2018-01-10T03:30:25.322Z,7.90
2018-01-10T03:32:52.919Z,7.87
2018-01-10T03:35:20.515Z,6.22
2018-01-10T03:37:48.134Z,8.02
2018-01-10T03:40:15.733Z,9.75
2018-01-10T03:42:43.531Z,7.37
2018-01-10T03:45:11.079Z,9.82
2018-01-10T03:47:38.833Z,9.48
2018-01-10T03:50:06.448Z,8.40
2018-01-10T03:52:34.080Z,10.13
2018-01-10T03:55:01.726Z,8.32
2018-01-10T03:57:29.481Z,7.82
2018-01-10T03:59:57.276Z,12.40
2018-01-10T04:02:24.882Z,16.00
2018-01-10T04:04:52.668Z,10.20
2018-01-10T04:07:22.531Z,10.00
2018-01-10T04:09:50.133Z,12.75
2018-01-10T04:12:17.726Z,8.05
2018-01-10T04:14:45.282Z,9.52
2018-01-10T04:17:12.944Z,9.65
2018-01-10T04:19:40.517Z,9.32
2018-01-10T04:22:08.253Z,8.30
2018-01-10T04:24:35.807Z,8.32
2018-01-10T04:27:04.205Z,8.98
2018-01-10T04:29:31.741Z,7.15
2018-01-10T04:31:59.337Z,5.93
2018-01-10T04:34:26.888Z,9.70
2018-01-10T04:36:54.468Z,6.90
2018-01-10T04:39:22.261Z,7.45
2018-01-10T04:41:49.901Z,6.50
2018-01-10T04:44:17.431Z,7.87
2018-01-10T04:46:45.032Z,7.00
2018-01-10T04:49:12.666Z,7.40
2018-01-10T04:51:40.596Z,8.55
2018-01-10T04:54:08.197Z,8.77
2018-01-10T04:56:35.747Z,5.43
2018-01-10T04:59:03.352Z,6.35
2018-01-10T05:01:30.929Z,7.57
2018-01-10T05:03:58.810Z,6.22
2018-01-10T05:06:26.413Z,6.10
2018-01-10T05:08:54.034Z,7.00
2018-01-10T05:11:21.834Z,7.28
2018-01-10T05:13:49.449Z,7.62
2018-01-10T05:16:17.087Z,7.28
2018-01-10T05:18:44.614Z,9.13
2018-01-10T05:21:12.244Z,8.20
2018-01-10T05:23:39.837Z,8.88
2018-01-10T05:26:08.121Z,10.32
2018-01-10T05:28:36.064Z,7.97
2018-01-10T05:31:04.094Z,11.12
2018-01-10T05:33:31.943Z,14.93
2018-01-10T05:35:59.531Z,16.45
2018-01-10T05:38:28.070Z,15.27
2018-01-10T05:40:55.760Z,15.00
2018-01-10T05:43:23.611Z,14.65
2018-01-10T05:45:51.385Z,12.18
2018-01-10T05:48:19.168Z,9.35
2018-01-10T05:50:47.133Z,13.15
2018-01-10T05:53:14.750Z,11.45
2018-01-10T05:55:42.339Z,12.52
2018-01-10T05:58:10.238Z,12.73
2018-01-10T06:00:37.904Z,19.00
2018-01-10T06:03:05.689Z,15.88
2018-01-10T06:05:33.952Z,12.68
2018-01-10T06:08:01.556Z,13.75
2018-01-10T06:10:29.156Z,12.02
2018-01-10T06:12:57.373Z,12.75
2018-01-10T06:15:25.000Z,14.68
2018-01-10T06:17:52.573Z,11.88
2018-01-10T06:20:20.115Z,19.65
2018-01-10T06:22:48.223Z,15.35
2018-01-10T06:25:16.048Z,24.98
2018-01-10T06:27:43.624Z,26.70
2018-01-10T06:30:11.345Z,29.63
2018-01-10T06:32:38.914Z,43.35
2018-01-10T06:35:08.046Z,34.85
2018-01-10T06:37:35.669Z,33.03
2018-01-10T06:40:04.224Z,38.45
2018-01-10T06:42:31.996Z,26.80
2018-01-10T06:45:00.560Z,16.10
2018-01-10T06:47:29.249Z,21.67
2018-01-10T06:49:57.699Z,14.43
2018-01-10T06:52:26.047Z,18.45
2018-01-10T06:54:53.715Z,15.30
2018-01-10T06:57:21.492Z,16.83
2018-01-10T06:59:49.913Z,21.58
2018-01-10T07:02:17.986Z,13.35
2018-01-10T07:04:45.603Z,12.32
2018-01-10T07:07:13.365Z,11.32
2018-01-10T07:09:41.007Z,15.02
2018-01-10T07:12:09.450Z,12.63
2018-01-10T07:14:37.042Z,13.85
2018-01-10T07:17:04.663Z,16.15
2018-01-10T07:19:33.160Z,18.37
2018-01-10T07:22:01.400Z,18.87
2018-01-10T07:24:29.653Z,19.52
2018-01-10T07:26:57.202Z,17.08
2018-01-10T07:29:25.732Z,20.98
2018-01-10T07:31:53.331Z,19.37
2018-01-10T07:34:20.914Z,24.00
2018-01-10T07:36:49.217Z,22.35
2018-01-10T07:39:16.822Z,22.80
2018-01-10T07:41:45.159Z,21.45
2018-01-10T07:44:12.731Z,25.70
2018-01-10T07:46:40.543Z,32.30
2018-01-10T07:49:08.354Z,21.08
2018-01-10T07:51:35.930Z,18.83
2018-01-10T07:54:03.540Z,21.83
2018-01-10T07:56:31.109Z,26.20
2018-01-10T07:58:58.874Z,15.82
2018-01-10T08:01:26.476Z,19.73
2018-01-10T08:03:54.072Z,11.30
2018-01-10T08:06:21.625Z,14.77
2018-01-10T08:08:49.305Z,18.80
2018-01-10T08:11:17.856Z,17.25
2018-01-10T08:13:46.163Z,12.60
2018-01-10T08:16:14.452Z,14.05
2018-01-10T08:18:42.928Z,9.98
2018-01-10T08:21:10.508Z,9.05
2018-01-10T08:23:38.808Z,11.10
2018-01-10T08:26:07.288Z,11.32
2018-01-10T08:28:35.572Z,10.90
2018-01-10T08:31:04.203Z,12.13
2018-01-10T08:33:31.844Z,11.00
2018-01-10T08:35:59.501Z,9.80
2018-01-10T08:38:28.040Z,9.68
2018-01-10T08:40:55.678Z,9.18
2018-01-10T08:43:23.431Z,6.87
2018-01-10T08:45:51.070Z,9.18
2018-01-10T08:48:18.688Z,12.07
2018-01-10T08:50:46.461Z,13.88
2018-01-10T08:53:14.320Z,15.38
2018-01-10T08:55:41.848Z,12.50
2018-01-10T08:58:09.437Z,10.98
2018-01-10T09:00:37.339Z,12.10
2018-01-10T09:03:05.244Z,12.88
2018-01-10T09:05:32.807Z,12.00
2018-01-10T09:08:01.930Z,15.00
2018-01-10T09:10:29.491Z,12.30
2018-01-10T09:12:57.047Z,12.63
2018-01-10T09:15:24.636Z,17.02
2018-01-10T09:17:52.875Z,8.95
2018-01-10T09:20:20.505Z,11.93
2018-01-10T09:22:48.119Z,10.35
2018-01-10T09:25:15.871Z,14.50
2018-01-10T09:27:43.500Z,14.52
2018-01-10T09:30:11.242Z,11.45
2018-01-10T09:32:38.790Z,16.52
2018-01-10T09:35:06.363Z,15.85
2018-01-10T09:37:34.250Z,17.00
2018-01-10T09:40:01.803Z,14.27
2018-01-10T09:42:30.577Z,12.40
2018-01-10T09:44:58.173Z,17.70
2018-01-10T09:47:25.750Z,18.37
2018-01-10T09:49:53.393Z,11.60
2018-01-10T09:52:21.157Z,13.45
2018-01-10T09:54:48.783Z,10.85
2018-01-10T09:57:16.715Z,10.77
2018-01-10T09:59:44.431Z,13.43
2018-01-10T10:02:12.099Z,9.70
2018-01-10T10:04:40.537Z,9.50
2018-01-10T10:07:08.346Z,9.85
2018-01-10T10:09:35.996Z,8.60
2018-01-10T10:12:04.476Z,10.13
2018-01-10T10:14:32.248Z,10.20
2018-01-10T10:16:59.850Z,8.63
2018-01-10T10:19:27.441Z,13.55
2018-01-10T10:21:55.235Z,10.75
2018-01-10T10:24:23.786Z,9.45
2018-01-10T10:26:51.375Z,13.18
2018-01-10T10:29:19.131Z,13.15
2018-01-10T10:31:47.305Z,10.85
2018-01-10T10:34:14.955Z,9.95
2018-01-10T10:36:43.075Z,9.20
2018-01-10T10:39:11.067Z,12.90
2018-01-10T10:41:38.666Z,9.68
2018-01-10T10:44:06.519Z,11.75
2018-01-10T10:46:34.315Z,16.30
2018-01-10T10:49:02.874Z,17.80
2018-01-10T10:51:30.578Z,12.13
2018-01-10T10:53:58.169Z,12.13
2018-01-10T10:56:25.745Z,18.60
2018-01-10T10:58:53.326Z,18.65
2018-01-10T11:01:21.274Z,14.57
2018-01-10T11:03:48.862Z,12.63
2018-01-10T11:06:16.504Z,14.70
2018-01-10T11:08:45.123Z,17.50
2018-01-10T11:11:12.948Z,12.67
2018-01-10T11:13:40.549Z,13.13
2018-01-10T11:16:08.306Z,12.83
2018-01-10T11:18:35.923Z,17.40
2018-01-10T11:21:03.557Z,9.00
2018-01-10T11:23:31.235Z,11.43
2018-01-10T11:25:58.852Z,10.70
2018-01-10T11:28:28.453Z,9.13
2018-01-10T11:30:56.249Z,15.07
2018-01-10T11:33:23.947Z,9.33
2018-01-10T11:35:51.564Z,10.23
2018-01-10T11:38:19.156Z,8.40
2018-01-10T11:40:47.591Z,7.77
2018-01-10T11:43:15.151Z,12.20
2018-01-10T11:45:43.588Z,9.00
2018-01-10T11:48:12.607Z,10.00
2018-01-10T11:50:40.193Z,9.67
2018-01-10T11:53:07.968Z,9.50
2018-01-10T11:55:36.345Z,13.50
2018-01-10T11:58:04.909Z,9.40
2018-01-10T12:00:32.547Z,10.17
2018-01-10T12:03:00.135Z,11.57
2018-01-10T12:05:27.740Z,12.80
2018-01-10T12:07:55.413Z,7.70
2018-01-10T12:10:23.005Z,7.10
2018-01-10T12:12:50.820Z,12.17
2018-01-10T12:15:18.454Z,10.60
2018-01-10T12:17:46.116Z,9.00
2018-01-10T12:20:13.950Z,12.07
2018-01-10T12:22:45.023Z,8.50
2018-01-10T12:25:12.617Z,8.00
2018-01-10T12:27:40.253Z,31.23
2018-01-10T12:30:08.182Z,8.77
2018-01-10T12:32:35.791Z,10.27
2018-01-10T12:35:03.357Z,12.47
2018-01-10T12:37:32.014Z,11.25
2018-01-10T12:40:01.029Z,9.35
2018-01-10T12:42:29.222Z,10.47
2018-01-10T12:44:56.834Z,6.97
2018-01-10T12:47:24.473Z,12.50
2018-01-10T12:49:52.042Z,8.55
2018-01-10T12:52:19.626Z,9.20
2018-01-10T12:54:47.343Z,9.60
2018-01-10T12:57:14.963Z,7.93
2018-01-10T12:59:42.677Z,9.07
2018-01-10T13:02:10.324Z,10.95
2018-01-10T13:04:37.894Z,11.75
2018-01-10T13:07:05.478Z,14.02
2018-01-10T13:09:33.123Z,15.27
2018-01-10T13:12:00.717Z,10.55
2018-01-10T13:14:28.312Z,15.60
2018-01-10T13:16:56.296Z,18.05
2018-01-10T13:19:23.867Z,15.50
2018-01-10T13:21:51.475Z,12.30
2018-01-10T13:24:19.108Z,18.17
2018-01-10T13:26:47.902Z,14.23
2018-01-10T13:29:16.440Z,12.90
2018-01-10T13:31:44.096Z,13.33
2018-01-10T13:34:11.670Z,12.73
2018-01-10T13:36:39.332Z,11.10
2018-01-10T13:39:06.930Z,12.18
2018-01-10T13:41:34.494Z,11.10
2018-01-10T13:44:02.057Z,12.85
2018-01-10T13:46:30.888Z,18.43
2018-01-10T13:48:59.467Z,17.10
2018-01-10T13:51:27.051Z,11.77
2018-01-10T13:53:54.732Z,10.77
2018-01-10T13:56:23.100Z,12.23
2018-01-10T13:58:51.079Z,8.97
2018-01-10T14:01:18.757Z,10.95
2018-01-10T14:03:46.376Z,18.17
2018-01-10T14:06:13.976Z,11.93
2018-01-10T14:08:41.603Z,13.55
2018-01-10T14:11:09.218Z,16.70
2018-01-10T14:13:36.806Z,9.77
2018-01-10T14:16:04.600Z,11.15
2018-01-10T14:18:32.453Z,8.90
2018-01-10T14:21:00.190Z,13.77
2018-01-10T14:23:27.892Z,13.70
2018-01-10T14:25:56.648Z,12.37
2018-01-10T14:28:24.516Z,8.88
2018-01-10T14:30:52.310Z,12.20
2018-01-10T14:33:20.016Z,16.00
2018-01-10T14:35:47.576Z,11.12
2018-01-10T14:38:15.195Z,14.95
2018-01-10T14:40:42.948Z,14.27
2018-01-10T14:43:10.597Z,17.62
2018-01-10T14:45:38.193Z,17.12
2018-01-10T14:48:06.119Z,20.40
2018-01-10T14:50:33.945Z,18.70
2018-01-10T14:53:01.601Z,19.30
2018-01-10T14:55:29.230Z,27.42
2018-01-10T14:57:56.860Z,18.73
2018-01-10T15:00:24.611Z,17.10
2018-01-10T15:02:52.260Z,19.08
2018-01-10T15:05:20.071Z,17.17
2018-01-10T15:07:48.251Z,18.52
2018-01-10T15:10:16.057Z,17.70
2018-01-10T15:12:43.668Z,13.68
2018-01-10T15:15:11.545Z,16.00
2018-01-10T15:17:39.432Z,18.12
2018-01-10T15:20:07.215Z,19.05
2018-01-10T15:22:35.026Z,20.67
2018-01-10T15:25:02.867Z,20.60
2018-01-10T15:27:32.186Z,24.92
2018-01-10T15:29:59.840Z,24.37
2018-01-10T15:32:27.541Z,24.35
2018-01-10T15:34:55.154Z,22.23
2018-01-10T15:37:23.899Z,33.70
2018-01-10T15:39:51.571Z,41.92
2018-01-10T15:42:20.033Z,34.85
2018-01-10T15:44:47.624Z,42.42
2018-01-10T15:47:15.339Z,37.08
2018-01-10T15:49:42.965Z,32.22
2018-01-10T15:52:11.352Z,37.67
2018-01-10T15:54:39.001Z,27.58
2018-01-10T15:57:06.730Z,35.97
2018-01-10T15:59:34.575Z,26.25
2018-01-10T16:02:02.169Z,27.55
2018-01-10T16:04:29.772Z,35.55
2018-01-10T16:06:57.562Z,30.55
2018-01-10T16:09:25.245Z,30.02
2018-01-10T16:11:52.940Z,26.12
2018-01-10T16:14:21.137Z,27.35
2018-01-10T16:16:49.525Z,34.40
2018-01-10T16:19:17.685Z,41.15
2018-01-10T16:21:45.617Z,43.87
2018-01-10T16:24:13.446Z,53.35
2018-01-10T16:26:41.246Z,54.38
2018-01-10T16:29:09.224Z,50.72
2018-01-10T16:31:36.907Z,46.17
2018-01-10T16:34:04.617Z,61.35
2018-01-10T16:36:32.406Z,60.12
2018-01-10T16:39:00.942Z,74.40
2018-01-10T16:41:29.349Z,55.58
2018-01-10T16:43:57.113Z,63.40
2018-01-10T16:46:24.741Z,60.90
2018-01-10T16:48:52.348Z,58.30
2018-01-10T16:51:19.998Z,50.80
2018-01-10T16:53:48.248Z,61.72
2018-01-10T16:56:16.541Z,60.53
2018-01-10T16:58:44.417Z,55.38
2018-01-10T17:01:12.111Z,47.15
2018-01-10T17:03:40.752Z,52.03
2018-01-10T17:06:08.443Z,52.40
2018-01-10T17:08:36.084Z,53.47
2018-01-10T17:11:03.770Z,65.05
2018-01-10T17:13:32.348Z,74.97
2018-01-10T17:15:59.916Z,63.08
2018-01-10T17:18:28.450Z,61.60
2018-01-10T17:20:56.477Z,51.53
2018-01-10T17:23:24.362Z,53.05
2018-01-10T17:25:53.121Z,59.38
2018-01-10T17:28:20.700Z,79.10
2018-01-10T17:30:48.292Z,72.78
2018-01-10T17:33:15.849Z,74.40
2018-01-10T17:35:44.112Z,66.80
2018-01-10T17:38:11.844Z,49.50
2018-01-10T17:40:39.914Z,50.25
2018-01-10T17:43:07.676Z,42.75
2018-01-10T17:45:35.329Z,59.95
2018-01-10T17:48:03.777Z,38.65
2018-01-10T17:50:32.564Z,45.33
2018-01-10T17:53:00.372Z,70.22
2018-01-10T17:55:27.993Z,80.70
2018-01-10T17:57:56.098Z,80.20
2018-01-10T18:00:25.008Z,66.07
2018-01-10T18:02:52.608Z,73.78
2018-01-10T18:05:21.141Z,82.50
2018-01-10T18:07:48.816Z,98.45
2018-01-10T18:10:16.509Z,71.22
2018-01-10T18:12:45.764Z,87.57
2018-01-10T18:15:13.452Z,90.35
2018-01-10T18:17:41.571Z,67.87
2018-01-10T18:20:09.271Z,70.55
2018-01-10T18:22:36.966Z,84.85
2018-01-10T18:25:05.004Z,69.95
2018-01-10T18:27:32.792Z,71.53
2018-01-10T18:30:00.983Z,75.75
2018-01-10T18:32:28.599Z,72.65
2018-01-10T18:34:56.209Z,63.75
2018-01-10T18:37:24.036Z,51.95
2018-01-10T18:39:52.651Z,54.33
2018-01-10T18:42:20.689Z,58.45
2018-01-10T18:44:48.362Z,58.13
2018-01-10T18:47:15.997Z,77.57
2018-01-10T18:49:43.576Z,62.28
2018-01-10T18:52:11.150Z,71.18
2018-01-10T18:54:39.689Z,65.55
2018-01-10T18:57:08.019Z,60.45
2018-01-10T18:59:36.078Z,67.57
2018-01-10T19:02:04.577Z,67.97
2018-01-10T19:04:32.810Z,78.80
2018-01-10T19:07:00.592Z,64.07
2018-01-10T19:09:29.149Z,56.28
2018-01-10T19:11:58.309Z,65.03
2018-01-10T19:14:26.755Z,66.95
2018-01-10T19:16:55.370Z,83.47
2018-01-10T19:19:23.033Z,97.50
2018-01-10T19:21:50.759Z,127.55
2018-01-10T19:24:18.644Z,139.37
2018-01-10T19:26:47.090Z,150.60
2018-01-10T19:29:16.085Z,162.98
2018-01-10T19:31:43.701Z,155.77
2018-01-10T19:34:12.091Z,158.48
2018-01-10T19:36:40.344Z,132.93
2018-01-10T19:39:08.084Z,108.65
2018-01-10T19:41:35.703Z,75.53
2018-01-10T19:44:03.770Z,76.70
2018-01-10T19:46:31.586Z,63.92
2018-01-10T19:48:59.898Z,57.85
2018-01-10T19:51:28.328Z,72.28
2018-01-10T19:53:55.946Z,81.63
2018-01-10T19:56:24.809Z,72.10
2018-01-10T19:58:52.704Z,47.33
2018-01-10T20:01:20.457Z,45.67
2018-01-10T20:03:47.994Z,55.73
2018-01-10T20:06:15.557Z,53.13
2018-01-10T20:08:43.284Z,43.35
2018-01-10T20:11:10.982Z,48.90
2018-01-10T20:13:39.985Z,40.83
2018-01-10T20:16:07.580Z,42.72
2018-01-10T20:18:35.238Z,34.55
2018-01-10T20:21:02.780Z,37.80
2018-01-10T20:23:30.432Z,32.20
2018-01-10T20:25:58.023Z,33.95
2018-01-10T20:28:25.578Z,31.35
2018-01-10T20:30:53.279Z,39.33
2018-01-10T20:33:20.876Z,38.15
2018-01-10T20:35:48.413Z,36.90
2018-01-10T20:38:16.778Z,31.08
2018-01-10T20:40:45.606Z,28.95
2018-01-10T20:43:14.112Z,29.17
2018-01-10T20:45:41.744Z,35.33
2018-01-10T20:48:09.552Z,29.35
2018-01-10T20:50:37.148Z,29.85
2018-01-10T20:53:05.730Z,33.50
2018-01-10T20:55:34.208Z,30.95
2018-01-10T20:58:02.425Z,31.87
2018-01-10T21:00:30.116Z,33.78
2018-01-10T21:02:57.745Z,32.78
2018-01-10T21:05:25.381Z,27.30
2018-01-10T21:07:53.100Z,32.95
2018-01-10T21:10:20.710Z,36.22
2018-01-10T21:12:48.324Z,34.95
2018-01-10T21:15:15.983Z,30.48
2018-01-10T21:17:43.647Z,29.10
2018-01-10T21:20:11.216Z,32.33
2018-01-10T21:22:38.917Z,26.30
2018-01-10T21:25:06.538Z,25.20
2018-01-10T21:27:34.182Z,28.83
2018-01-10T21:30:01.849Z,20.83
2018-01-10T21:32:29.538Z,24.70
2018-01-10T21:34:57.784Z,24.98
2018-01-10T21:37:27.339Z,25.52
2018-01-10T21:39:55.816Z,30.23
2018-01-10T21:42:23.614Z,32.65
2018-01-10T21:44:51.429Z,41.85
2018-01-10T21:47:19.044Z,33.70
2018-01-10T21:49:46.657Z,34.38
2018-01-10T21:52:14.473Z,32.85
2018-01-10T21:54:42.062Z,30.02
2018-01-10T21:57:09.655Z,28.05
2018-01-10T21:59:38.266Z,21.83
2018-01-10T22:02:05.853Z,22.62
2018-01-10T22:04:33.632Z,28.00
2018-01-10T22:07:01.213Z,28.87
2018-01-10T22:09:28.862Z,27.70
2018-01-10T22:11:56.647Z,25.00
2018-01-10T22:14:24.543Z,28.90
2018-01-10T22:16:52.214Z,28.25
2018-01-10T22:19:19.808Z,27.23
2018-01-10T22:21:47.568Z,30.27
2018-01-10T22:24:16.133Z,27.95
2018-01-10T22:26:43.733Z,31.73
2018-01-10T22:29:11.344Z,35.47
2018-01-10T22:31:39.138Z,31.98
2018-01-10T22:34:06.719Z,21.58
2018-01-10T22:36:34.336Z,23.83
2018-01-10T22:39:02.309Z,22.95
2018-01-10T22:41:29.883Z,20.75
2018-01-10T22:43:57.447Z,21.83
2018-01-10T22:46:25.093Z,28.08
2018-01-10T22:48:53.316Z,17.00
2018-01-10T22:51:20.896Z,22.23
2018-01-10T22:53:48.492Z,23.77
2018-01-10T22:56:16.045Z,20.88
2018-01-10T22:58:43.830Z,23.05
2018-01-10T23:01:11.434Z,17.67
2018-01-10T23:03:39.195Z,18.08
2018-01-10T23:06:07.759Z,19.27
2018-01-10T23:08:38.791Z,16.33
2018-01-10T23:11:07.811Z,20.45
2018-01-10T23:13:36.757Z,17.10
2018-01-10T23:16:04.994Z,18.35
2018-01-10T23:18:34.659Z,18.10
2018-01-10T23:21:04.675Z,18.08
2018-01-10T23:23:32.882Z,24.92
2018-01-10T23:26:02.822Z,16.97
2018-01-10T23:28:31.925Z,20.37
2018-01-10T23:31:01.167Z,18.60
2018-01-10T23:33:30.227Z,18.17
2018-01-10T23:35:59.718Z,20.67
2018-01-10T23:38:28.114Z,18.40
2018-01-10T23:40:55.845Z,21.97
2018-01-10T23:43:23.442Z,20.88
2018-01-10T23:45:51.004Z,24.40
2018-01-10T23:48:19.014Z,22.25
2018-01-10T23:50:47.620Z,20.67
2018-01-10T23:53:16.816Z,18.73
2018-01-10T23:55:47.102Z,21.87
2018-01-10T23:58:16.634Z,22.43
